Time;durP1;ratioP1;P1;durP2;ratioP2;P2;SDS_P1;SDS_P2;PMS_P1;PMS_P2;Temp;Humidity;BMP_temperature;BMP_pressure;BME280_temperature;BME280_humidity;BME280_pressure;Samples;Min_cycle;Max_cycle;Signal;HPM_P1;HPM_P2
2022/11/12 00:01:27;;;;;;;42.23;22.90;;;5.50;99.90;;;;;;5065140;28;20191;-59
2022/11/12 00:03:57;;;;;;;36.73;22.17;;;5.50;99.90;;;;;;4975813;28;20852;-60
2022/11/12 00:06:25;;;;;;;40.00;22.40;;;5.50;99.90;;;;;;4971622;28;20188;-59
2022/11/12 00:08:54;;;;;;;38.43;22.47;;;5.50;99.90;;;;;;4979421;28;20191;-59
2022/11/12 00:11:22;;;;;;;38.57;22.63;;;5.50;99.90;;;;;;4978627;28;20223;-59
2022/11/12 00:13:50;;;;;;;38.70;21.37;;;5.50;99.90;;;;;;4968563;28;20631;-59
2022/11/12 00:16:19;;;;;;;35.60;20.20;;;5.50;99.90;;;;;;4973089;28;20209;-59
2022/11/12 00:18:47;;;;;;;35.27;20.47;;;5.50;99.90;;;;;;4975416;28;20340;-59
2022/11/12 00:21:17;;;;;;;35.03;20.13;;;5.50;99.90;;;;;;4979329;28;20199;-59
2022/11/12 00:23:46;;;;;;;38.87;21.83;;;5.40;99.90;;;;;;4984713;28;20213;-59
2022/11/12 00:26:14;;;;;;;38.30;23.00;;;5.40;99.90;;;;;;4976013;28;20209;-59
2022/11/12 00:28:42;;;;;;;38.83;21.63;;;5.40;99.90;;;;;;4968418;28;20195;-59
2022/11/12 00:31:12;;;;;;;32.83;20.07;;;5.40;99.90;;;;;;4973700;28;20191;-59
2022/11/12 00:33:41;;;;;;;35.20;21.27;;;5.30;99.90;;;;;;4964905;28;20199;-59
2022/11/12 00:36:10;;;;;;;31.17;18.07;;;5.20;99.90;;;;;;4996706;28;20284;-60
2022/11/12 00:38:40;;;;;;;31.23;18.43;;;5.20;99.90;;;;;;4983452;28;20219;-60
2022/11/12 00:41:08;;;;;;;26.07;17.03;;;5.20;99.90;;;;;;4981566;28;20207;-60
2022/11/12 00:43:36;;;;;;;27.80;17.40;;;5.10;99.90;;;;;;4973566;28;20202;-59
2022/11/12 00:46:05;;;;;;;26.70;16.50;;;5.10;99.90;;;;;;4967528;28;20203;-59
2022/11/12 00:48:33;;;;;;;25.20;16.20;;;5.00;99.90;;;;;;4974167;28;20196;-59
2022/11/12 00:51:03;;;;;;;25.30;16.63;;;5.00;99.90;;;;;;4975422;28;20199;-59
2022/11/12 00:53:35;;;;;;;26.80;17.33;;;4.90;99.90;;;;;;4969768;28;20198;-59
2022/11/12 00:56:06;;;;;;;25.23;15.90;;;4.80;99.90;;;;;;4974499;28;20202;-59
2022/11/12 00:58:36;;;;;;;30.17;16.40;;;4.80;99.90;;;;;;4968471;28;20211;-59
2022/11/12 01:01:07;;;;;;;24.63;16.07;;;4.70;99.90;;;;;;4966609;28;20267;-60
2022/11/12 01:03:36;;;;;;;29.30;17.13;;;4.70;99.90;;;;;;4975508;28;20546;-59
2022/11/12 01:06:06;;;;;;;30.17;17.83;;;4.80;99.90;;;;;;4975773;28;20195;-59
2022/11/12 01:08:35;;;;;;;27.23;17.40;;;4.80;99.90;;;;;;5001493;28;20188;-59
2022/11/12 01:11:10;;;;;;;24.10;16.03;;;4.90;99.90;;;;;;4976901;28;20187;-60
2022/11/12 01:13:40;;;;;;;24.10;16.07;;;4.90;99.90;;;;;;4968275;28;20203;-60
2022/11/12 01:16:13;;;;;;;25.83;16.20;;;4.90;99.90;;;;;;4986081;28;20248;-60
2022/11/12 01:18:43;;;;;;;28.17;16.00;;;4.90;99.90;;;;;;4968328;28;20231;-60
2022/11/12 01:21:11;;;;;;;25.03;16.30;;;4.90;99.90;;;;;;4987852;28;20898;-59
2022/11/12 01:23:42;;;;;;;25.40;16.20;;;4.80;99.90;;;;;;4970616;28;20195;-60
2022/11/12 01:26:15;;;;;;;25.30;16.53;;;4.80;99.90;;;;;;4974909;28;20207;-59
2022/11/12 01:28:44;;;;;;;24.10;15.73;;;4.70;99.90;;;;;;4977095;28;20207;-60
2022/11/12 01:31:15;;;;;;;24.10;15.50;;;4.70;99.90;;;;;;5009196;28;20565;-59
2022/11/12 01:33:46;;;;;;;27.50;16.07;;;4.70;99.90;;;;;;4973409;28;20201;-59
2022/11/12 01:36:17;;;;;;;26.63;16.87;;;4.60;99.90;;;;;;4970930;28;20214;-59
2022/11/12 01:38:46;;;;;;;26.23;16.50;;;4.60;99.90;;;;;;4980244;28;20906;-60
2022/11/12 01:41:19;;;;;;;26.13;17.20;;;4.70;99.90;;;;;;4970633;28;20195;-59
2022/11/12 01:43:48;;;;;;;26.47;16.53;;;4.70;99.90;;;;;;4971469;28;20206;-59
2022/11/12 01:46:22;;;;;;;34.43;17.03;;;4.70;99.90;;;;;;4966574;28;20196;-60
2022/11/12 01:48:53;;;;;;;30.87;16.60;;;4.70;99.90;;;;;;4976793;28;20196;-59
2022/11/12 01:51:25;;;;;;;26.10;16.60;;;4.70;99.90;;;;;;4994178;28;20904;-60
2022/11/12 01:53:56;;;;;;;25.43;15.97;;;4.70;99.90;;;;;;4969684;28;20202;-60
2022/11/12 01:56:29;;;;;;;25.63;15.73;;;4.70;99.90;;;;;;4974469;28;20195;-59
2022/11/12 01:59:02;;;;;;;24.70;15.83;;;4.70;99.90;;;;;;4970534;28;20674;-59
2022/11/12 02:01:31;;;;;;;26.27;15.60;;;4.70;99.90;;;;;;4970109;28;20634;-59
2022/11/12 02:04:00;;;;;;;27.13;16.53;;;4.70;99.90;;;;;;4974491;28;20653;-59
2022/11/12 02:06:28;;;;;;;22.93;14.60;;;4.70;99.90;;;;;;4969871;28;20198;-60
2022/11/12 02:08:57;;;;;;;23.10;15.17;;;4.60;99.90;;;;;;4971132;28;20198;-59
2022/11/12 02:11:28;;;;;;;23.07;15.50;;;4.60;99.90;;;;;;4972289;28;20693;-59
2022/11/12 02:13:56;;;;;;;25.17;15.47;;;4.50;99.90;;;;;;4973073;28;20199;-59
2022/11/12 02:16:26;;;;;;;23.30;14.10;;;4.50;99.90;;;;;;4977517;28;20198;-59
2022/11/12 02:18:55;;;;;;;25.37;14.73;;;4.40;99.90;;;;;;4974282;28;20234;-59
2022/11/12 02:21:25;;;;;;;25.00;15.57;;;4.40;99.90;;;;;;4975361;28;21058;-59
2022/11/12 02:24:02;;;;;;;24.20;16.10;;;4.30;99.90;;;;;;4970116;28;20206;-59
2022/11/12 02:26:35;;;;;;;26.50;16.03;;;4.30;99.90;;;;;;4975274;28;20229;-59
2022/11/12 02:29:04;;;;;;;25.20;15.77;;;4.30;99.90;;;;;;4966101;28;20207;-59
2022/11/12 02:31:32;;;;;;;26.73;16.33;;;4.30;99.90;;;;;;5003914;28;20213;-59
2022/11/12 02:34:01;;;;;;;23.90;14.97;;;4.30;99.90;;;;;;4977381;28;20206;-60
2022/11/12 02:36:31;;;;;;;25.70;15.47;;;4.30;99.90;;;;;;4969054;28;20196;-59
2022/11/12 02:38:59;;;;;;;25.90;16.43;;;4.30;99.90;;;;;;4972276;28;20215;-59
2022/11/12 02:41:28;;;;;;;23.70;15.73;;;4.30;99.90;;;;;;4972869;28;20214;-59
2022/11/12 02:43:57;;;;;;;25.43;16.10;;;4.30;99.90;;;;;;4973535;28;20191;-59
2022/11/12 02:46:25;;;;;;;25.00;15.67;;;4.20;99.90;;;;;;4980446;28;20961;-59
2022/11/12 02:48:53;;;;;;;26.17;16.53;;;4.20;99.90;;;;;;4989351;28;20211;-59
2022/11/12 02:51:21;;;;;;;27.70;17.30;;;4.20;99.90;;;;;;4981203;28;20207;-59
2022/11/12 02:53:51;;;;;;;25.30;16.37;;;4.20;99.90;;;;;;4973715;28;20210;-59
2022/11/12 02:56:20;;;;;;;25.63;16.63;;;4.20;99.90;;;;;;4984106;28;20771;-59
2022/11/12 02:58:49;;;;;;;25.00;16.83;;;4.20;99.90;;;;;;4968663;28;20246;-59
2022/11/12 03:01:17;;;;;;;27.10;15.90;;;4.20;99.90;;;;;;4973619;28;20191;-60
2022/11/12 03:03:45;;;;;;;25.10;16.00;;;4.10;99.90;;;;;;4973898;28;20678;-60
2022/11/12 03:06:14;;;;;;;24.10;15.53;;;4.10;99.90;;;;;;4979844;28;20530;-59
2022/11/12 03:08:42;;;;;;;22.50;14.53;;;4.10;99.90;;;;;;4976164;28;20428;-60
2022/11/12 03:11:14;;;;;;;25.63;14.43;;;4.10;99.90;;;;;;4970959;28;20224;-59
2022/11/12 03:13:43;;;;;;;21.33;14.03;;;4.10;99.90;;;;;;4988720;28;20214;-59
2022/11/12 03:16:14;;;;;;;24.50;14.73;;;4.10;99.90;;;;;;4972818;28;20847;-59
2022/11/12 03:18:43;;;;;;;20.13;13.83;;;4.10;99.90;;;;;;4976486;28;20310;-59
2022/11/12 03:21:14;;;;;;;20.23;13.53;;;4.10;99.90;;;;;;4972200;28;20195;-59
2022/11/12 03:23:42;;;;;;;20.67;14.23;;;4.00;99.90;;;;;;4976279;28;20207;-59
2022/11/12 03:26:13;;;;;;;18.10;12.63;;;4.00;99.90;;;;;;4973889;28;20199;-59
2022/11/12 03:28:41;;;;;;;20.93;13.73;;;4.00;99.90;;;;;;4978511;28;20641;-59
2022/11/12 03:31:11;;;;;;;18.97;14.23;;;4.00;99.90;;;;;;4972305;28;20198;-60
2022/11/12 03:33:40;;;;;;;17.90;12.77;;;4.00;99.90;;;;;;5000362;28;20196;-60
2022/11/12 03:36:10;;;;;;;16.80;11.93;;;4.00;99.90;;;;;;4981877;28;20203;-59
2022/11/12 03:38:39;;;;;;;19.27;12.90;;;4.00;99.90;;;;;;4973490;28;20195;-60
2022/11/12 03:41:07;;;;;;;21.30;13.70;;;4.00;99.90;;;;;;4980433;28;20210;-59
2022/11/12 03:43:37;;;;;;;19.23;12.63;;;4.00;99.90;;;;;;4975755;28;20633;-59
2022/11/12 03:46:05;;;;;;;17.27;11.70;;;3.90;99.90;;;;;;4974389;28;20212;-59
2022/11/12 03:48:34;;;;;;;20.70;13.53;;;3.90;99.90;;;;;;4977705;28;20198;-59
2022/11/12 03:51:02;;;;;;;16.63;12.07;;;3.90;99.90;;;;;;4972695;28;20199;-59
2022/11/12 03:53:31;;;;;;;18.43;12.23;;;3.90;99.90;;;;;;4981779;28;20202;-59
2022/11/12 03:55:59;;;;;;;15.30;11.50;;;3.90;99.90;;;;;;4976074;28;20599;-59
2022/11/12 03:58:27;;;;;;;19.73;12.70;;;3.80;99.90;;;;;;4976672;28;20195;-60
2022/11/12 04:01:00;;;;;;;16.83;11.77;;;3.80;99.90;;;;;;4969841;28;20616;-59
2022/11/12 04:03:28;;;;;;;17.43;12.23;;;3.80;99.90;;;;;;4973028;28;20233;-59
2022/11/12 04:08:43;;;;;;;14.57;11.10;;;3.80;99.90;;;;;;4966636;28;20904;-59
2022/11/12 04:11:13;;;;;;;16.50;12.03;;;3.70;99.90;;;;;;4975330;28;20210;-59
2022/11/12 04:13:46;;;;;;;17.17;11.77;;;3.70;99.90;;;;;;4973961;28;20235;-59
2022/11/12 04:21:57;;;;;;;17.73;12.93;;;3.70;99.90;;;;;;4976411;28;20198;-59
2022/11/12 04:27:15;;;;;;;15.13;11.47;;;3.60;99.90;;;;;;4978078;28;20661;-59
2022/11/12 04:32:35;;;;;;;15.67;10.60;;;3.60;99.90;;;;;;4972003;28;20894;-59
2022/11/12 04:35:05;;;;;;;18.93;11.43;;;3.60;99.90;;;;;;4979106;28;20665;-59
2022/11/12 04:37:44;;;;;;;15.57;10.80;;;3.60;99.90;;;;;;5007289;28;20692;-60
2022/11/12 04:45:50;;;;;;;17.80;12.17;;;3.50;99.90;;;;;;4969039;28;20222;-59
2022/11/12 04:48:21;;;;;;;22.30;14.17;;;3.50;99.90;;;;;;4986536;28;20767;-59
2022/11/12 04:50:55;;;;;;;19.63;13.50;;;3.50;99.90;;;;;;4971121;28;20199;-59
2022/11/12 04:53:24;;;;;;;18.53;12.33;;;3.50;99.90;;;;;;4974283;28;20725;-59
2022/11/12 04:55:54;;;;;;;16.80;11.33;;;3.50;99.90;;;;;;4988795;28;20695;-59
2022/11/12 04:58:22;;;;;;;19.80;11.83;;;3.50;99.90;;;;;;4982159;28;20199;-59
2022/11/12 05:00:52;;;;;;;18.83;11.77;;;3.50;99.90;;;;;;4967167;28;20757;-59
2022/11/12 05:03:21;;;;;;;15.20;10.67;;;3.50;99.90;;;;;;4971841;28;20696;-59
2022/11/12 05:05:50;;;;;;;15.33;10.70;;;3.50;99.90;;;;;;4974194;28;20198;-59
2022/11/12 05:08:18;;;;;;;14.47;10.67;;;3.50;99.90;;;;;;4976579;28;20212;-61
2022/11/12 05:10:47;;;;;;;15.83;10.97;;;3.50;99.90;;;;;;4975988;28;20199;-59
2022/11/12 05:13:15;;;;;;;14.50;10.47;;;3.50;99.90;;;;;;4972053;28;20603;-59
2022/11/12 05:15:44;;;;;;;13.80;9.40;;;3.50;99.90;;;;;;4986674;28;20191;-61
2022/11/12 05:18:13;;;;;;;13.53;9.97;;;3.50;99.90;;;;;;4971583;28;20806;-61
2022/11/12 05:20:42;;;;;;;14.50;10.53;;;3.50;99.90;;;;;;4974438;28;20214;-61
2022/11/12 05:23:11;;;;;;;15.40;10.43;;;3.50;99.90;;;;;;4972474;28;20195;-61
2022/11/12 05:25:40;;;;;;;14.83;10.13;;;3.50;99.90;;;;;;4977399;28;20206;-61
2022/11/12 05:28:08;;;;;;;13.83;10.17;;;3.50;99.90;;;;;;4974454;28;20207;-61
2022/11/12 05:30:37;;;;;;;13.93;10.13;;;3.50;99.90;;;;;;4970468;28;20183;-61
2022/11/12 05:33:05;;;;;;;13.90;10.33;;;3.50;99.90;;;;;;4967472;28;20277;-61
2022/11/12 05:35:33;;;;;;;15.13;10.50;;;3.50;99.90;;;;;;4978374;28;20210;-61
2022/11/12 05:38:03;;;;;;;14.60;10.00;;;3.50;99.90;;;;;;4973073;28;20202;-61
2022/11/12 05:40:32;;;;;;;12.43;9.70;;;3.50;99.90;;;;;;4984560;28;20222;-61
2022/11/12 05:43:00;;;;;;;17.77;12.10;;;3.50;99.90;;;;;;4969868;28;20199;-61
2022/11/12 05:45:29;;;;;;;14.63;10.63;;;3.50;99.90;;;;;;4977019;28;20669;-61
2022/11/12 05:47:57;;;;;;;15.50;10.83;;;3.40;99.90;;;;;;4976320;28;21556;-61
2022/11/12 05:50:25;;;;;;;18.03;11.37;;;3.40;99.90;;;;;;4988482;28;20195;-61
2022/11/12 05:53:08;;;;;;;16.70;10.83;;;3.50;99.90;;;;;;4972335;28;20213;-61
2022/11/12 05:55:36;;;;;;;15.07;10.53;;;3.50;99.90;;;;;;4987059;28;20222;-61
2022/11/12 05:58:05;;;;;;;19.30;11.77;;;3.50;99.90;;;;;;4973850;28;20195;-61
2022/11/12 06:00:37;;;;;;;22.43;12.60;;;3.40;99.90;;;;;;4970146;28;20917;-61
2022/11/12 06:03:06;;;;;;;24.40;14.30;;;3.50;99.90;;;;;;4975361;28;20691;-61
2022/11/12 06:05:35;;;;;;;22.97;12.70;;;3.50;99.90;;;;;;5003138;28;20218;-61
2022/11/12 06:08:05;;;;;;;21.00;13.23;;;3.60;99.90;;;;;;4969101;28;20219;-61
2022/11/12 06:10:35;;;;;;;26.30;14.67;;;3.70;99.90;;;;;;4968687;28;20206;-59
2022/11/12 06:13:03;;;;;;;24.83;13.63;;;3.80;99.90;;;;;;5007654;28;20864;-59
2022/11/12 06:15:33;;;;;;;25.90;14.40;;;3.80;99.90;;;;;;4969190;28;20195;-61
2022/11/12 06:18:06;;;;;;;25.60;14.23;;;3.80;99.90;;;;;;4971961;28;20648;-59
2022/11/12 06:20:35;;;;;;;25.20;14.13;;;3.80;99.90;;;;;;4973609;28;20219;-61
2022/11/12 06:23:04;;;;;;;24.00;13.77;;;3.80;99.90;;;;;;4974034;28;20204;-61
2022/11/12 06:25:33;;;;;;;24.47;14.20;;;3.80;99.90;;;;;;4994674;28;20257;-58
2022/11/12 06:28:03;;;;;;;24.27;14.00;;;3.80;99.90;;;;;;4975164;28;20203;-61
2022/11/12 06:30:31;;;;;;;29.50;16.30;;;3.80;99.90;;;;;;4967907;28;20211;-61
2022/11/12 06:33:00;;;;;;;29.40;16.50;;;3.90;99.90;;;;;;4980999;28;20207;-61
2022/11/12 06:35:28;;;;;;;26.67;15.37;;;4.00;99.90;;;;;;4978191;28;20665;-61
2022/11/12 06:37:57;;;;;;;30.63;15.27;;;4.10;99.90;;;;;;4979436;28;20203;-61
2022/11/12 06:40:25;;;;;;;33.00;16.30;;;4.10;99.90;;;;;;4992937;28;20196;-61
2022/11/12 06:42:59;;;;;;;32.90;16.90;;;4.10;99.90;;;;;;4975790;28;20200;-61
2022/11/12 06:45:29;;;;;;;26.87;15.87;;;4.10;99.90;;;;;;4990977;28;20192;-61
2022/11/12 06:47:58;;;;;;;25.77;14.33;;;4.00;99.90;;;;;;4975373;28;20204;-61
2022/11/12 06:50:27;;;;;;;24.27;15.50;;;4.00;99.90;;;;;;4973264;28;20195;-61
2022/11/12 06:52:59;;;;;;;27.17;15.43;;;4.00;99.90;;;;;;4981690;28;20650;-59
2022/11/12 06:55:28;;;;;;;28.27;14.60;;;4.00;99.90;;;;;;4989180;28;20209;-61
2022/11/12 06:57:57;;;;;;;25.83;15.07;;;3.90;99.90;;;;;;4976219;28;20192;-61
2022/11/12 07:00:27;;;;;;;25.30;15.23;;;3.90;99.90;;;;;;4983058;28;20202;-61
2022/11/12 07:02:57;;;;;;;30.53;17.07;;;3.90;99.90;;;;;;4972322;28;20343;-61
2022/11/12 07:05:25;;;;;;;30.00;16.70;;;4.00;99.90;;;;;;4976476;28;20205;-61
2022/11/12 07:07:54;;;;;;;29.00;16.57;;;4.10;99.90;;;;;;4978091;28;20681;-61
2022/11/12 07:10:25;;;;;;;34.40;17.97;;;4.10;99.90;;;;;;4978710;28;20195;-61
2022/11/12 07:12:54;;;;;;;30.83;17.53;;;4.10;99.90;;;;;;4976552;28;20211;-61
2022/11/12 07:15:23;;;;;;;32.73;17.13;;;4.10;99.90;;;;;;5003385;28;20206;-61
2022/11/12 07:17:52;;;;;;;28.90;17.03;;;4.10;99.90;;;;;;4977595;28;20617;-59
2022/11/12 07:20:21;;;;;;;33.00;17.60;;;4.10;99.90;;;;;;4975379;28;20203;-61
2022/11/12 07:22:49;;;;;;;31.37;17.47;;;4.10;99.90;;;;;;4983966;28;20223;-61
2022/11/12 07:25:18;;;;;;;30.83;18.10;;;4.10;99.90;;;;;;4989800;28;20195;-61
2022/11/12 07:27:48;;;;;;;42.00;20.80;;;4.10;99.90;;;;;;4974166;28;20699;-61
2022/11/12 07:30:17;;;;;;;44.70;22.93;;;4.20;99.90;;;;;;4970276;28;20195;-61
2022/11/12 07:32:45;;;;;;;60.97;28.00;;;4.20;99.90;;;;;;4987337;28;20198;-61
2022/11/12 07:35:20;;;;;;;48.40;24.57;;;4.40;99.90;;;;;;4982219;28;20194;-61
2022/11/12 07:37:48;;;;;;;47.93;24.10;;;4.40;99.90;;;;;;4976705;28;20207;-61
2022/11/12 07:40:17;;;;;;;48.77;25.30;;;4.40;99.90;;;;;;4986612;28;20195;-61
2022/11/12 07:42:45;;;;;;;49.53;25.63;;;4.40;99.90;;;;;;4982226;28;20217;-61
2022/11/12 07:45:13;;;;;;;44.30;24.10;;;4.40;99.90;;;;;;4978141;28;20199;-61
2022/11/12 07:47:42;;;;;;;49.60;23.00;;;4.50;99.90;;;;;;4982151;28;20708;-59
2022/11/12 07:50:10;;;;;;;51.47;25.77;;;4.50;99.90;;;;;;4975160;28;20385;-61
2022/11/12 07:52:40;;;;;;;51.53;26.10;;;4.60;99.90;;;;;;4975693;28;20203;-61
2022/11/12 07:55:09;;;;;;;48.90;24.93;;;4.70;99.90;;;;;;4976677;28;20204;-61
2022/11/12 07:57:37;;;;;;;48.00;24.73;;;4.70;99.90;;;;;;4994686;28;20191;-59
2022/11/12 08:00:07;;;;;;;48.43;26.47;;;4.80;99.90;;;;;;4971887;28;20238;-61
2022/11/12 08:02:36;;;;;;;48.27;26.47;;;4.90;99.90;;;;;;4977929;28;20218;-61
2022/11/12 08:05:05;;;;;;;50.33;25.70;;;5.00;99.90;;;;;;4995121;28;20203;-61
2022/11/12 08:07:45;;;;;;;46.90;25.97;;;5.10;99.90;;;;;;4994564;28;20298;-61
2022/11/12 08:10:13;;;;;;;44.27;23.10;;;5.20;99.90;;;;;;4976132;28;20286;-60
2022/11/12 08:12:42;;;;;;;44.93;23.03;;;5.20;99.90;;;;;;4975090;28;20207;-59
2022/11/12 08:15:10;;;;;;;48.63;26.20;;;5.30;99.90;;;;;;4977434;28;20202;-62
2022/11/12 08:17:39;;;;;;;44.67;24.27;;;5.40;99.90;;;;;;4985275;28;20242;-62
2022/11/12 08:20:08;;;;;;;48.60;25.67;;;5.60;99.90;;;;;;4979051;28;20227;-61
2022/11/12 08:22:37;;;;;;;44.77;24.53;;;5.60;99.90;;;;;;5007174;27;20212;-62
2022/11/12 08:25:08;;;;;;;40.60;23.87;;;5.80;99.90;;;;;;4977259;28;20198;-61
2022/11/12 08:27:36;;;;;;;45.90;24.50;;;5.90;99.90;;;;;;4978349;28;20209;-61
2022/11/12 08:30:06;;;;;;;42.63;23.77;;;6.00;99.90;;;;;;4978811;28;20198;-59
2022/11/12 08:32:34;;;;;;;40.87;22.97;;;6.20;99.90;;;;;;4977759;28;20203;-61
2022/11/12 08:35:03;;;;;;;39.43;22.53;;;6.30;99.90;;;;;;4979513;28;20206;-61
2022/11/12 08:37:31;;;;;;;36.13;22.07;;;6.40;99.90;;;;;;4975428;28;20552;-61
2022/11/12 08:39:59;;;;;;;37.17;21.87;;;6.50;99.90;;;;;;4970849;28;20195;-59
2022/11/12 08:42:29;;;;;;;35.40;21.83;;;6.60;99.90;;;;;;5006234;28;20218;-59
2022/11/12 08:44:58;;;;;;;39.20;24.03;;;6.80;99.90;;;;;;4974365;28;20198;-59
2022/11/12 08:47:26;;;;;;;38.77;21.33;;;6.90;99.90;;;;;;4977998;28;20221;-59
2022/11/12 08:49:54;;;;;;;38.57;21.30;;;7.00;99.90;;;;;;4978361;28;20800;-61
2022/11/12 08:52:23;;;;;;;34.50;21.53;;;7.20;99.90;;;;;;4970856;28;20195;-59
2022/11/12 08:54:51;;;;;;;34.20;20.77;;;7.40;99.90;;;;;;4975862;28;20194;-59
2022/11/12 08:57:20;;;;;;;34.27;19.53;;;7.50;99.90;;;;;;4972172;28;20230;-59
2022/11/12 08:59:50;;;;;;;31.70;19.03;;;7.60;99.90;;;;;;4968304;28;20196;-60
2022/11/12 09:02:18;;;;;;;31.00;18.87;;;7.70;99.90;;;;;;4978335;28;20242;-60
2022/11/12 09:04:46;;;;;;;30.00;18.30;;;7.80;99.90;;;;;;4971017;28;20191;-60
2022/11/12 09:07:15;;;;;;;31.43;18.00;;;7.90;99.90;;;;;;4987473;28;20210;-59
2022/11/12 09:10:04;;;;;;;25.50;17.40;;;8.10;99.90;;;;;;4968601;28;20191;-59
2022/11/12 09:12:33;;;;;;;26.50;17.23;;;8.20;99.90;;;;;;4971108;28;20218;-60
2022/11/12 09:15:03;;;;;;;27.33;17.33;;;8.30;99.90;;;;;;4969050;28;20219;-59
2022/11/12 09:17:55;;;;;;;24.07;16.67;;;8.40;99.90;;;;;;4968529;28;20253;-60
2022/11/12 09:20:24;;;;;;;24.23;16.57;;;8.70;99.90;;;;;;4966998;28;20215;-60
2022/11/12 09:22:52;;;;;;;25.13;16.33;;;8.80;99.90;;;;;;4974369;28;20273;-60
2022/11/12 09:25:21;;;;;;;20.53;14.43;;;8.90;99.90;;;;;;4972193;28;20266;-60
2022/11/12 09:27:49;;;;;;;20.57;14.47;;;9.20;99.90;;;;;;4980039;28;20207;-60
2022/11/12 09:30:19;;;;;;;21.67;14.30;;;9.30;99.90;;;;;;4973728;28;20199;-60
2022/11/12 09:32:48;;;;;;;20.13;13.93;;;9.50;99.90;;;;;;4967432;28;20200;-60
2022/11/12 09:35:17;;;;;;;16.93;12.70;;;9.70;99.90;;;;;;4974375;28;20611;-60
2022/11/12 09:37:45;;;;;;;14.07;10.83;;;9.80;99.90;;;;;;4974074;28;20697;-60
2022/11/12 09:40:18;;;;;;;13.23;9.57;;;9.90;99.90;;;;;;4966363;28;20198;-60
2022/11/12 09:42:51;;;;;;;10.77;9.00;;;10.10;99.90;;;;;;4972598;28;20207;-60
2022/11/12 09:45:25;;;;;;;9.57;8.57;;;10.40;99.90;;;;;;4973141;28;20196;-60
2022/11/12 09:47:58;;;;;;;11.13;8.90;;;10.60;99.90;;;;;;4968480;28;20202;-60
2022/11/12 09:50:30;;;;;;;8.70;7.80;;;10.70;99.90;;;;;;4969174;28;20206;-60
2022/11/12 09:53:04;;;;;;;7.87;7.17;;;10.90;99.90;;;;;;4970824;28;20196;-60
2022/11/12 09:55:36;;;;;;;8.90;8.00;;;11.10;99.90;;;;;;4970456;28;20200;-60
2022/11/12 09:58:11;;;;;;;8.40;7.60;;;11.20;99.90;;;;;;4972996;28;20203;-60
2022/11/12 10:00:45;;;;;;;8.13;7.30;;;11.40;99.90;;;;;;4976508;28;20197;-60
2022/11/12 10:03:21;;;;;;;10.60;7.43;;;11.60;99.90;;;;;;5014712;28;20222;-60
2022/11/12 10:05:56;;;;;;;10.60;7.30;;;11.70;99.90;;;;;;4969081;28;20206;-60
2022/11/12 10:08:35;;;;;;;7.77;6.93;;;11.80;99.90;;;;;;4967180;28;20203;-60
2022/11/12 10:11:22;;;;;;;7.90;7.10;;;11.90;99.90;;;;;;4966095;28;20909;-60
2022/11/12 10:14:01;;;;;;;8.30;7.47;;;11.90;99.90;;;;;;4966094;28;20202;-60
2022/11/12 10:16:46;;;;;;;8.27;7.17;;;11.90;99.90;;;;;;4975096;28;20780;-60
2022/11/12 10:19:27;;;;;;;8.17;7.37;;;11.90;99.90;;;;;;4967913;28;20242;-61
2022/11/12 10:22:01;;;;;;;7.73;6.93;;;12.00;99.90;;;;;;4968464;28;20202;-60
2022/11/12 10:24:34;;;;;;;8.43;6.93;;;12.10;99.90;;;;;;4977187;28;20210;-60
2022/11/12 10:27:13;;;;;;;8.20;7.40;;;12.20;99.90;;;;;;4975474;28;20203;-62
2022/11/12 10:29:49;;;;;;;8.37;7.00;;;12.20;99.90;;;;;;4968393;28;20195;-61
2022/11/12 10:32:18;;;;;;;7.60;6.90;;;12.40;99.90;;;;;;4970415;28;20206;-60
2022/11/12 10:34:47;;;;;;;7.67;6.87;;;12.50;99.90;;;;;;5002491;28;20202;-61
2022/11/12 10:37:20;;;;;;;8.33;7.27;;;12.50;99.90;;;;;;5010102;28;20249;-60
2022/11/12 10:39:48;;;;;;;7.60;6.73;;;12.50;99.90;;;;;;4980583;28;20190;-61
2022/11/12 10:42:19;;;;;;;7.47;6.77;;;12.50;99.90;;;;;;4975974;28;20199;-60
2022/11/12 10:44:48;;;;;;;9.27;7.53;;;12.50;99.90;;;;;;4980998;28;20660;-61
2022/11/12 10:47:30;;;;;;;8.30;6.20;;;12.70;99.90;;;;;;4972411;28;20552;-60
2022/11/12 10:50:15;;;;;;;7.30;6.60;;;12.90;99.90;;;;;;4971219;28;20200;-60
2022/11/12 10:52:58;;;;;;;8.17;6.93;;;12.80;99.90;;;;;;5055409;28;20222;-60
2022/11/12 10:55:29;;;;;;;7.27;6.57;;;12.80;99.90;;;;;;4976598;28;20637;-61
2022/11/12 10:58:15;;;;;;;10.17;7.13;;;12.90;99.90;;;;;;4970126;28;20192;-60
2022/11/12 11:00:58;;;;;;;7.47;6.53;;;13.20;99.90;;;;;;4972726;28;20191;-60
2022/11/12 11:03:32;;;;;;;8.33;6.90;;;13.30;99.90;;;;;;4976173;28;20682;-60
2022/11/12 11:06:02;;;;;;;8.30;7.07;;;13.30;99.90;;;;;;5007898;27;20623;-61
2022/11/12 11:08:41;;;;;;;7.77;6.90;;;13.50;99.90;;;;;;4980572;28;20188;-61
2022/11/12 11:11:24;;;;;;;7.10;6.40;;;13.60;99.90;;;;;;4973001;28;20219;-60
2022/11/12 11:13:55;;;;;;;7.23;6.37;;;13.80;99.90;;;;;;4981159;28;20204;-61
2022/11/12 11:16:25;;;;;;;8.77;6.97;;;13.90;99.90;;;;;;4971885;28;20195;-61
2022/11/12 11:18:58;;;;;;;7.63;6.93;;;14.10;99.90;;;;;;5028188;28;20228;-61
2022/11/12 11:21:45;;;;;;;7.33;6.63;;;14.20;99.90;;;;;;4976528;28;20211;-61
2022/11/12 11:24:27;;;;;;;8.87;6.30;;;14.30;99.90;;;;;;5004266;28;20245;-61
2022/11/12 11:27:02;;;;;;;7.00;6.30;;;14.40;99.90;;;;;;4973838;28;20196;-61
2022/11/12 11:29:44;;;;;;;7.60;6.20;;;14.40;99.90;;;;;;4973745;28;20200;-61
2022/11/12 11:32:29;;;;;;;7.20;6.60;;;14.50;99.90;;;;;;4967432;28;20215;-61
2022/11/12 11:35:19;;;;;;;6.80;6.20;;;14.40;99.90;;;;;;4969807;28;20660;-61
2022/11/12 11:38:03;;;;;;;10.43;7.10;;;14.50;99.90;;;;;;4976298;28;20200;-61
2022/11/12 11:40:36;;;;;;;6.87;6.30;;;14.60;99.90;;;;;;4977823;28;20886;-61
2022/11/12 11:43:29;;;;;;;7.30;6.60;;;14.40;99.90;;;;;;4975076;28;20213;-61
2022/11/12 11:46:07;;;;;;;6.93;6.43;;;14.40;99.90;;;;;;4979009;28;20219;-61
2022/11/12 11:48:50;;;;;;;8.40;6.73;;;14.40;99.90;;;;;;4971567;28;20204;-61
2022/11/12 11:51:36;;;;;;;6.90;6.37;;;14.40;99.90;;;;;;4969161;28;20195;-61
2022/11/12 11:54:20;;;;;;;7.67;6.87;;;14.30;99.90;;;;;;4978283;28;20193;-61
2022/11/12 11:56:51;;;;;;;7.10;6.47;;;14.40;99.90;;;;;;5008018;28;20570;-61
2022/11/12 11:59:33;;;;;;;8.70;7.13;;;14.40;99.90;;;;;;4972367;28;20540;-61
2022/11/12 12:02:29;;;;;;;7.47;6.67;;;14.50;99.90;;;;;;4981606;28;20338;-61
2022/11/12 12:05:08;;;;;;;7.40;6.70;;;14.60;99.90;;;;;;4974840;28;20215;-61
2022/11/12 12:07:47;;;;;;;7.93;6.87;;;14.70;99.90;;;;;;4971513;28;20199;-61
2022/11/12 12:10:24;;;;;;;7.07;6.40;;;14.70;99.90;;;;;;4982918;28;20562;-61
2022/11/12 12:13:20;;;;;;;6.73;6.13;;;14.70;99.90;;;;;;4975109;28;20209;-61
2022/11/12 12:16:07;;;;;;;9.20;6.20;;;14.90;99.90;;;;;;4992294;28;20697;-61
2022/11/12 12:18:45;;;;;;;6.47;5.90;;;15.00;99.90;;;;;;4978910;28;20243;-61
2022/11/12 12:21:16;;;;;;;6.53;5.93;;;15.00;99.90;;;;;;4973887;28;20194;-61
2022/11/12 12:23:49;;;;;;;6.47;5.87;;;15.30;99.90;;;;;;4980359;28;20234;-61
2022/11/12 12:26:24;;;;;;;6.87;6.23;;;15.50;99.90;;;;;;4981202;28;20654;-61
2022/11/12 12:28:56;;;;;;;7.13;6.17;;;15.60;99.90;;;;;;4978698;28;20292;-61
2022/11/12 12:31:35;;;;;;;8.97;5.70;;;15.70;99.90;;;;;;4988896;28;20198;-61
2022/11/12 12:34:12;;;;;;;6.50;5.90;;;15.70;99.90;;;;;;4977504;28;20276;-61
2022/11/12 12:36:42;;;;;;;10.33;5.50;;;15.70;99.90;;;;;;4977404;28;20211;-61
2022/11/12 12:39:17;;;;;;;6.20;5.57;;;15.80;99.90;;;;;;4978045;28;20279;-61
2022/11/12 12:41:53;;;;;;;6.70;6.13;;;16.00;99.90;;;;;;4974202;28;20190;-61
2022/11/12 12:44:58;;;;;;;8.37;6.00;;;16.10;99.90;;;;;;4982554;28;20573;-61
2022/11/12 12:47:13;;;;;;;6.77;6.17;;;16.00;99.90;;;;;;4978635;28;20612;-61
2022/11/12 12:49:42;;;;;;;6.43;5.83;;;16.10;99.90;;;;;;4969599;28;20554;-61
2022/11/12 12:52:14;;;;;;;7.67;6.40;;;16.10;99.90;;;;;;4974394;28;20206;-61
2022/11/12 12:55:01;;;;;;;6.70;6.10;;;16.20;99.90;;;;;;4972652;28;20233;-61
2022/11/12 12:57:32;;;;;;;11.90;8.13;;;16.00;99.90;;;;;;4972568;28;20203;-61
2022/11/12 13:00:32;;;;;;;8.40;7.53;;;15.90;99.90;;;;;;4972570;28;20206;-61
2022/11/12 13:03:00;;;;;;;7.27;5.80;;;15.90;99.90;;;;;;5028111;28;20217;-61
2022/11/12 13:05:31;;;;;;;7.13;6.47;;;16.00;99.90;;;;;;4973314;28;20816;-61
2022/11/12 13:08:04;;;;;;;6.33;5.73;;;16.10;99.90;;;;;;4968481;28;20195;-61
2022/11/12 13:10:55;;;;;;;6.23;5.70;;;16.00;99.90;;;;;;4973655;28;20199;-61
2022/11/12 13:13:40;;;;;;;6.43;5.80;;;15.90;99.90;;;;;;4970790;28;20549;-61
2022/11/12 13:16:10;;;;;;;7.37;6.00;;;15.90;99.90;;;;;;4974650;28;20209;-61
2022/11/12 13:19:01;;;;;;;7.17;5.90;;;16.00;99.90;;;;;;4973434;28;20255;-61
2022/11/12 13:21:30;;;;;;;5.87;5.20;;;16.10;99.90;;;;;;4979284;28;20686;-61
2022/11/12 13:24:07;;;;;;;5.83;5.33;;;16.20;99.90;;;;;;4968230;28;20298;-61